Time;durP1;ratioP1;P1;durP2;ratioP2;P2;SDS_P1;SDS_P2;PMS_P1;PMS_P2;Temp;Humidity;BMP_temperature;BMP_pressure;BME280_temperature;BME280_humidity;BME280_pressure;Samples;Min_cycle;Max_cycle;Signal;HPM_P1;HPM_P2
2022/07/21 00:02:02;;;;;;;;;;;;;;;26.12;35.51;100676.56;5066756;28;2579;-44
2022/07/21 00:04:27;;;;;;;;;;;;;;;26.16;35.18;100666.25;5067391;28;977;-45
2022/07/21 00:06:52;;;;;;;;;;;;;;;26.16;35.13;100664.41;5062954;28;1187;-43
2022/07/21 00:09:18;;;;;;;;;;;;;;;26.33;35.13;100658.06;5065262;28;1638;-46
2022/07/21 00:11:43;;;;;;;;;;;;;;;26.43;35.41;100655.13;5069786;28;1974;-44
2022/07/21 00:14:08;;;;;;;;;;;;;;;26.50;35.21;100654.25;5073852;28;1099;-44
2022/07/21 00:16:34;;;;;;;;;;;;;;;26.44;35.26;100649.59;5073700;28;1158;-43
2022/07/21 00:18:59;;;;;;;;;;;;;;;26.27;35.32;100648.81;5063574;28;1021;-44
2022/07/21 00:21:25;;;;;;;;;;;;;;;26.18;35.48;100648.03;5058785;28;874;-45
2022/07/21 00:23:50;;;;;;;;;;;;;;;26.14;35.41;100644.03;5068275;28;1210;-44
2022/07/21 00:26:16;;;;;;;;;;;;;;;26.13;35.62;100642.34;5062972;28;1036;-44
2022/07/21 00:28:41;;;;;;;;;;;;;;;26.12;35.62;100636.13;5062765;28;1020;-44
2022/07/21 00:31:06;;;;;;;;;;;;;;;26.09;35.68;100635.63;5063326;28;2464;-43
2022/07/21 00:33:31;;;;;;;;;;;;;;;26.31;35.39;100636.66;5068026;28;950;-44
2022/07/21 00:35:57;;;;;;;;;;;;;;;26.43;35.34;100633.56;5065756;28;997;-44
2022/07/21 00:38:22;;;;;;;;;;;;;;;26.39;35.36;100625.00;5070785;28;993;-44
2022/07/21 00:40:47;;;;;;;;;;;;;;;26.28;35.02;100628.91;5052881;28;1021;-44
2022/07/21 00:43:13;;;;;;;;;;;;;;;26.15;35.21;100627.69;5071104;28;1123;-45
2022/07/21 00:45:38;;;;;;;;;;;;;;;26.09;35.45;100617.59;5067198;28;1024;-44
2022/07/21 00:48:03;;;;;;;;;;;;;;;26.04;35.76;100614.63;5073079;28;1128;-44
2022/07/21 00:50:29;;;;;;;;;;;;;;;26.01;35.88;100618.50;5065838;28;1902;-45
2022/07/21 00:52:54;;;;;;;;;;;;;;;26.16;35.63;100620.41;5056230;28;1219;-46
2022/07/21 00:55:20;;;;;;;;;;;;;;;26.40;35.42;100622.13;5065777;28;1044;-44
2022/07/21 00:57:45;;;;;;;;;;;;;;;26.40;35.09;100610.50;5062214;28;1000;-45
2022/07/21 01:00:15;;;;;;;;;;;;;;;26.23;35.33;100609.75;5067165;28;1102;-46
2022/07/21 01:02:40;;;;;;;;;;;;;;;26.11;35.48;100606.66;5071370;28;2505;-46
2022/07/21 01:05:06;;;;;;;;;;;;;;;26.03;35.65;100611.06;5068985;28;1225;-43
2022/07/21 01:07:32;;;;;;;;;;;;;;;26.02;35.57;100605.88;5073058;28;973;-44
2022/07/21 01:09:57;;;;;;;;;;;;;;;26.03;35.51;100607.53;5036317;28;1304;-44
2022/07/21 01:12:22;;;;;;;;;;;;;;;26.02;35.58;100603.16;5054122;28;1906;-45
2022/07/21 01:14:47;;;;;;;;;;;;;;;26.28;35.38;100599.25;5054919;28;1131;-45
2022/07/21 01:17:13;;;;;;;;;;;;;;;26.42;35.20;100600.38;5049010;28;1028;-43
2022/07/21 01:19:38;;;;;;;;;;;;;;;26.56;35.21;100611.38;5031508;28;1057;-44
2022/07/21 01:22:03;;;;;;;;;;;;;;;26.38;35.24;100599.03;5048790;28;1171;-43
2022/07/21 01:24:29;;;;;;;;;;;;;;;26.19;35.17;100597.66;5055729;28;1088;-44
2022/07/21 01:26:54;;;;;;;;;;;;;;;26.09;35.42;100597.91;5052885;28;1028;-46
2022/07/21 01:29:19;;;;;;;;;;;;;;;26.01;35.82;100596.94;5048288;28;1028;-43
2022/07/21 01:31:45;;;;;;;;;;;;;;;25.99;35.68;100600.84;5052574;28;2520;-45
2022/07/21 01:34:10;;;;;;;;;;;;;;;26.00;35.53;100589.88;5046167;28;1038;-43
2022/07/21 01:36:36;;;;;;;;;;;;;;;26.13;35.78;100589.28;5052566;28;1069;-43
2022/07/21 01:41:45;;;;;;;;;;;;;;;26.44;35.64;100592.09;5045955;28;1057;-44
2022/07/21 01:44:11;;;;;;;;;;;;;;;26.48;35.41;100580.75;5051351;28;1239;-45
2022/07/21 01:46:38;;;;;;;;;;;;;;;26.33;35.54;100585.25;5057016;28;851;-43
2022/07/21 01:49:03;;;;;;;;;;;;;;;26.20;35.74;100581.31;5046349;28;1009;-44
2022/07/21 01:51:29;;;;;;;;;;;;;;;26.08;35.94;100582.72;5046480;28;1898;-43
2022/07/21 01:53:54;;;;;;;;;;;;;;;26.07;36.08;100584.59;5052167;28;1052;-43
2022/07/21 01:56:20;;;;;;;;;;;;;;;25.98;36.23;100582.97;5050584;28;1027;-43
2022/07/21 01:58:46;;;;;;;;;;;;;;;25.96;36.05;100583.16;5050548;28;934;-44
2022/07/21 02:01:11;;;;;;;;;;;;;;;26.13;36.29;100583.88;5052676;28;2542;-45
2022/07/21 02:03:36;;;;;;;;;;;;;;;26.39;35.79;100587.25;5054140;28;1120;-45
2022/07/21 02:06:05;;;;;;;;;;;;;;;26.39;35.63;100577.28;5056521;28;998;-44
2022/07/21 02:08:30;;;;;;;;;;;;;;;26.19;35.86;100574.25;5044303;28;1230;-44
2022/07/21 02:10:55;;;;;;;;;;;;;;;26.10;36.41;100575.31;5069528;28;1983;-44
2022/07/21 02:13:21;;;;;;;;;;;;;;;25.99;36.32;100568.50;5061296;28;998;-44
2022/07/21 02:15:46;;;;;;;;;;;;;;;25.97;36.17;100573.22;5069579;28;965;-43
2022/07/21 02:18:11;;;;;;;;;;;;;;;25.92;36.20;100571.06;5071933;28;1115;-43
2022/07/21 02:20:37;;;;;;;;;;;;;;;26.04;36.17;100574.19;5073456;28;1175;-44
2022/07/21 02:23:02;;;;;;;;;;;;;;;26.24;35.95;100571.00;5071642;28;1533;-43
2022/07/21 02:25:27;;;;;;;;;;;;;;;26.45;35.81;100564.94;5070584;28;985;-44
2022/07/21 02:27:53;;;;;;;;;;;;;;;26.46;35.52;100568.47;5071874;28;1040;-40
2022/07/21 02:30:18;;;;;;;;;;;;;;;26.49;35.29;100558.13;5066478;28;1076;-45
2022/07/21 02:32:43;;;;;;;;;;;;;;;26.26;35.78;100563.53;5063645;28;2369;-44
2022/07/21 02:35:08;;;;;;;;;;;;;;;26.10;35.83;100556.44;5073585;28;937;-43
2022/07/21 02:37:34;;;;;;;;;;;;;;;25.99;36.12;100553.13;5072968;28;1095;-45
2022/07/21 02:39:59;;;;;;;;;;;;;;;25.96;36.27;100560.78;5076033;28;1087;-44
2022/07/21 02:42:24;;;;;;;;;;;;;;;25.92;36.35;100546.81;5076681;28;1123;-44
2022/07/21 02:44:50;;;;;;;;;;;;;;;25.95;36.42;100537.50;5071246;28;1009;-45
2022/07/21 02:47:15;;;;;;;;;;;;;;;26.20;36.43;100548.94;5063984;28;834;-43
2022/07/21 02:49:40;;;;;;;;;;;;;;;26.44;35.96;100541.69;5067083;28;1075;-46
2022/07/21 02:52:05;;;;;;;;;;;;;;;26.52;35.50;100538.91;5076336;28;1894;-44
2022/07/21 02:54:31;;;;;;;;;;;;;;;26.51;35.65;100544.47;5068748;28;1013;-45
2022/07/21 02:56:56;;;;;;;;;;;;;;;26.28;35.74;100538.09;5072525;28;1033;-46
2022/07/21 02:59:22;;;;;;;;;;;;;;;25.98;35.82;100539.84;5072855;28;880;-44
2022/07/21 03:01:47;;;;;;;;;;;;;;;25.91;36.10;100545.97;5072511;28;2589;-43
2022/07/21 03:04:12;;;;;;;;;;;;;;;25.87;36.34;100541.97;5066949;28;997;-43
2022/07/21 03:06:37;;;;;;;;;;;;;;;25.84;36.17;100542.31;5074311;28;1100;-44
2022/07/21 03:09:03;;;;;;;;;;;;;;;25.83;36.59;100545.19;5074013;28;1180;-43
2022/07/21 03:11:28;;;;;;;;;;;;;;;25.81;36.54;100545.34;5064970;28;1961;-44
2022/07/21 03:13:53;;;;;;;;;;;;;;;25.98;36.53;100553.31;5068630;28;1047;-44
2022/07/21 03:16:19;;;;;;;;;;;;;;;26.27;35.82;100543.66;5072541;28;968;-44
2022/07/21 03:18:44;;;;;;;;;;;;;;;26.47;35.64;100551.25;5071109;28;1214;-45
2022/07/21 03:21:09;;;;;;;;;;;;;;;26.49;35.31;100539.25;5066550;28;993;-44
2022/07/21 03:23:35;;;;;;;;;;;;;;;26.35;35.53;100553.56;5070390;28;892;-45
2022/07/21 03:26:00;;;;;;;;;;;;;;;26.20;35.96;100561.56;5067599;28;1211;-43
2022/07/21 03:28:25;;;;;;;;;;;;;;;26.07;36.05;100556.81;5073031;28;1008;-44
2022/07/21 03:30:51;;;;;;;;;;;;;;;25.97;36.47;100555.19;5070534;28;1890;-45
2022/07/21 03:33:16;;;;;;;;;;;;;;;25.90;36.58;100555.06;5068975;28;2612;-44
2022/07/21 03:35:41;;;;;;;;;;;;;;;26.01;36.17;100550.25;5064613;28;914;-44
2022/07/21 03:38:07;;;;;;;;;;;;;;;25.74;35.45;100549.81;5063493;28;1185;-44
2022/07/21 03:40:33;;;;;;;;;;;;;;;25.61;34.88;100542.28;5076581;28;1122;-44
2022/07/21 03:43:00;;;;;;;;;;;;;;;25.37;35.42;100547.63;5064682;28;1008;-46
2022/07/21 03:45:26;;;;;;;;;;;;;;;25.46;34.95;100551.09;5070172;28;980;-44
2022/07/21 03:47:51;;;;;;;;;;;;;;;24.99;35.87;100542.88;5063190;28;951;-43
2022/07/21 03:50:17;;;;;;;;;;;;;;;25.05;36.22;100546.75;5070902;28;1005;-42
2022/07/21 03:52:43;;;;;;;;;;;;;;;25.04;36.44;100537.81;5064571;28;1906;-44
2022/07/21 03:55:08;;;;;;;;;;;;;;;24.84;37.03;100531.97;5061818;28;1001;-43
2022/07/21 03:57:37;;;;;;;;;;;;;;;25.16;36.25;100543.66;5067689;28;1036;-43
2022/07/21 04:00:04;;;;;;;;;;;;;;;24.73;36.82;100543.94;5062573;28;1247;-43
2022/07/21 04:02:29;;;;;;;;;;;;;;;24.66;36.14;100540.25;5072142;28;2523;-43
2022/07/21 04:04:54;;;;;;;;;;;;;;;24.67;35.31;100544.66;5070989;28;1024;-43
2022/07/21 04:07:20;;;;;;;;;;;;;;;24.51;35.61;100542.81;5068053;28;1005;-44
2022/07/21 04:09:45;;;;;;;;;;;;;;;24.49;35.27;100542.97;5070566;28;1499;-43
2022/07/21 04:12:10;;;;;;;;;;;;;;;24.36;36.60;100540.00;5062063;28;1907;-41
2022/07/21 04:14:36;;;;;;;;;;;;;;;24.42;35.82;100537.44;5074967;28;1198;-42
2022/07/21 04:17:01;;;;;;;;;;;;;;;24.51;35.37;100538.28;5057449;28;1222;-44
2022/07/21 04:19:28;;;;;;;;;;;;;;;24.65;35.93;100539.44;5064076;28;973;-41
2022/07/21 04:21:53;;;;;;;;;;;;;;;24.70;36.51;100537.06;5071773;28;1040;-42
2022/07/21 04:24:18;;;;;;;;;;;;;;;24.98;36.43;100535.00;5060926;28;1131;-43
2022/07/21 04:26:43;;;;;;;;;;;;;;;23.85;39.06;100539.97;5072767;28;954;-43
2022/07/21 04:29:09;;;;;;;;;;;;;;;24.25;38.98;100535.78;5070926;28;1171;-41
2022/07/21 04:31:34;;;;;;;;;;;;;;;23.51;40.78;100540.88;5069661;28;2434;-44
2022/07/21 04:33:59;;;;;;;;;;;;;;;23.76;39.91;100535.56;5074763;28;1230;-42
2022/07/21 04:36:25;;;;;;;;;;;;;;;24.92;37.63;100529.28;5069001;28;930;-44
2022/07/21 04:38:50;;;;;;;;;;;;;;;25.84;35.49;100531.53;5069679;28;1070;-42
2022/07/21 04:41:15;;;;;;;;;;;;;;;26.22;34.80;100532.59;5069249;28;1088;-42
2022/07/21 04:43:41;;;;;;;;;;;;;;;26.17;34.07;100527.75;5062828;28;989;-43
2022/07/21 04:46:07;;;;;;;;;;;;;;;26.23;33.57;100527.00;5068557;28;1040;-42
2022/07/21 04:48:32;;;;;;;;;;;;;;;26.15;33.87;100533.31;5064224;28;879;-42
2022/07/21 04:50:57;;;;;;;;;;;;;;;26.02;33.74;100530.41;5071779;28;1955;-43
2022/07/21 04:53:23;;;;;;;;;;;;;;;26.06;33.99;100530.88;5071797;28;1008;-45
2022/07/21 04:55:49;;;;;;;;;;;;;;;26.44;32.95;100527.38;5074067;28;1333;-44
2022/07/21 04:58:15;;;;;;;;;;;;;;;26.27;32.83;100538.28;5073513;28;1277;-44
2022/07/21 05:00:40;;;;;;;;;;;;;;;24.23;35.31;100529.72;5076527;28;989;-42
2022/07/21 05:03:05;;;;;;;;;;;;;;;22.96;35.39;100525.06;5072283;28;2606;-43
2022/07/21 05:05:31;;;;;;;;;;;;;;;22.12;36.83;100525.50;5066773;28;989;-49
2022/07/21 05:07:56;;;;;;;;;;;;;;;21.29;37.37;100515.59;5074296;28;1068;-45
2022/07/21 05:10:21;;;;;;;;;;;;;;;20.73;38.94;100522.72;5071230;28;1222;-46
2022/07/21 05:12:46;;;;;;;;;;;;;;;20.44;39.97;100532.47;5072364;28;1974;-47
2022/07/21 05:15:12;;;;;;;;;;;;;;;20.19;39.85;100532.09;5072552;28;1230;-46
2022/07/21 05:17:37;;;;;;;;;;;;;;;20.05;38.34;100526.19;5070122;28;1053;-47
2022/07/21 05:20:03;;;;;;;;;;;;;;;19.52;40.50;100530.88;5066462;28;1140;-46
2022/07/21 05:22:28;;;;;;;;;;;;;;;19.33;38.96;100526.34;5072841;28;1211;-46
2022/07/21 05:24:54;;;;;;;;;;;;;;;19.11;40.93;100528.25;5052308;28;1021;-46
2022/07/21 05:27:19;;;;;;;;;;;;;;;19.41;41.76;100534.53;5065418;28;1194;-46
2022/07/21 05:29:44;;;;;;;;;;;;;;;19.58;42.99;100533.00;5068754;28;1345;-47
2022/07/21 05:32:10;;;;;;;;;;;;;;;19.65;42.00;100532.47;5075884;28;2541;-47
2022/07/21 05:34:35;;;;;;;;;;;;;;;19.47;42.56;100532.28;5071668;28;1089;-46
2022/07/21 05:37:00;;;;;;;;;;;;;;;19.40;43.62;100538.16;5066542;28;1016;-45
2022/07/21 05:39:25;;;;;;;;;;;;;;;19.50;43.07;100545.34;5072356;28;1016;-46
2022/07/21 05:41:51;;;;;;;;;;;;;;;19.57;43.70;100550.00;5070357;28;1024;-46
2022/07/21 05:44:16;;;;;;;;;;;;;;;20.84;46.32;100553.75;5073158;28;1052;-45
2022/07/21 05:46:41;;;;;;;;;;;;;;;22.54;42.77;100552.59;5055481;28;1155;-44
2022/07/21 05:49:07;;;;;;;;;;;;;;;23.12;42.24;100552.97;5062946;28;1040;-44
2022/07/21 05:51:32;;;;;;;;;;;;;;;23.69;41.03;100561.41;5070012;28;1898;-43
2022/07/21 05:53:57;;;;;;;;;;;;;;;24.22;39.89;100558.47;5074698;28;1321;-45
2022/07/21 05:56:22;;;;;;;;;;;;;;;24.71;39.06;100559.41;5071351;28;1208;-42
2022/07/21 05:58:48;;;;;;;;;;;;;;;25.01;38.46;100565.09;5077771;28;1009;-45
2022/07/21 06:01:13;;;;;;;;;;;;;;;25.57;36.83;100571.41;5069728;28;1039;-45
2022/07/21 06:03:39;;;;;;;;;;;;;;;25.88;35.86;100565.19;5071002;28;950;-46
2022/07/21 06:06:05;;;;;;;;;;;;;;;25.94;35.16;100569.03;5068594;28;1052;-48
2022/07/21 06:08:30;;;;;;;;;;;;;;;25.89;34.24;100563.34;5073549;28;1055;-48
2022/07/21 06:10:56;;;;;;;;;;;;;;;25.87;33.81;100563.53;5073134;28;1910;-48
2022/07/21 06:13:21;;;;;;;;;;;;;;;25.90;33.72;100560.47;5071246;28;887;-44
2022/07/21 06:15:46;;;;;;;;;;;;;;;25.85;33.40;100565.56;5072201;28;1210;-46
2022/07/21 06:18:11;;;;;;;;;;;;;;;25.96;33.35;100574.25;5076039;28;937;-46
2022/07/21 06:20:37;;;;;;;;;;;;;;;26.09;32.78;100566.38;5063941;28;1241;-46
2022/07/21 06:23:02;;;;;;;;;;;;;;;26.28;32.37;100562.34;5075868;28;1079;-46
2022/07/21 06:25:27;;;;;;;;;;;;;;;26.30;32.21;100564.88;5071143;28;1013;-46
2022/07/21 06:27:52;;;;;;;;;;;;;;;26.37;31.69;100565.00;5065056;28;1076;-46
2022/07/21 06:30:18;;;;;;;;;;;;;;;26.44;31.52;100575.91;5077186;28;1096;-46
2022/07/21 06:32:43;;;;;;;;;;;;;;;26.39;31.50;100563.78;5066477;28;1894;-45
2022/07/21 06:35:09;;;;;;;;;;;;;;;26.26;31.85;100577.88;5071155;28;1060;-47
2022/07/21 06:37:34;;;;;;;;;;;;;;;26.06;32.04;100572.13;5066816;28;1182;-46
2022/07/21 06:39:59;;;;;;;;;;;;;;;26.07;31.82;100562.19;5071966;28;1079;-45
2022/07/21 06:42:25;;;;;;;;;;;;;;;25.98;32.14;100570.34;5073898;28;1048;-44
2022/07/21 06:44:50;;;;;;;;;;;;;;;25.85;31.45;100570.09;5072277;28;1060;-49
2022/07/21 06:47:15;;;;;;;;;;;;;;;25.90;31.44;100573.09;5075148;28;1147;-45
2022/07/21 06:49:40;;;;;;;;;;;;;;;25.90;31.45;100578.47;5073305;28;1156;-46
2022/07/21 06:52:06;;;;;;;;;;;;;;;26.10;31.51;100575.31;5075565;28;1906;-46
2022/07/21 06:54:31;;;;;;;;;;;;;;;25.88;31.23;100558.94;5056450;28;1172;-46
2022/07/21 06:56:56;;;;;;;;;;;;;;;26.01;31.52;100578.06;5067126;28;1024;-43
2022/07/21 06:59:22;;;;;;;;;;;;;;;25.99;31.25;100568.50;5071430;28;1533;-42
2022/07/21 07:01:47;;;;;;;;;;;;;;;26.16;31.43;100575.44;5067647;28;1290;-44
2022/07/21 07:04:12;;;;;;;;;;;;;;;26.27;31.08;100570.63;5073101;28;997;-45
2022/07/21 07:06:37;;;;;;;;;;;;;;;26.35;30.96;100575.13;5070090;28;1186;-42
2022/07/21 07:09:03;;;;;;;;;;;;;;;26.36;30.71;100571.44;5062361;28;1064;-46
2022/07/21 07:11:29;;;;;;;;;;;;;;;26.52;31.06;100573.13;5074724;28;1906;-55
2022/07/21 07:13:54;;;;;;;;;;;;;;;26.56;30.85;100566.34;5076396;28;1156;-49
2022/07/21 07:16:19;;;;;;;;;;;;;;;26.56;30.88;100568.22;5076500;28;1040;-45
2022/07/21 07:18:45;;;;;;;;;;;;;;;26.61;31.09;100560.41;5070215;28;1020;-44
2022/07/21 07:21:10;;;;;;;;;;;;;;;26.73;31.08;100555.38;5063980;28;1068;-45
2022/07/21 07:23:35;;;;;;;;;;;;;;;26.68;30.95;100568.59;5073609;28;993;-45
2022/07/21 07:26:00;;;;;;;;;;;;;;;26.67;31.22;100556.13;5071955;28;1266;-43
2022/07/21 07:28:26;;;;;;;;;;;;;;;26.74;31.08;100560.59;5072257;28;1009;-42
2022/07/21 07:30:51;;;;;;;;;;;;;;;26.66;31.17;100563.38;5073489;28;1901;-42
2022/07/21 07:33:16;;;;;;;;;;;;;;;26.68;31.53;100553.25;5071069;28;1260;-43
2022/07/21 07:35:42;;;;;;;;;;;;;;;26.63;31.31;100571.84;5058537;28;997;-45
2022/07/21 07:38:07;;;;;;;;;;;;;;;26.72;30.91;100559.09;5073497;28;1187;-44
2022/07/21 07:40:32;;;;;;;;;;;;;;;26.91;30.55;100568.50;5070656;28;1028;-48
2022/07/21 07:42:58;;;;;;;;;;;;;;;26.89;30.22;100570.56;5069179;28;980;-48
2022/07/21 07:45:23;;;;;;;;;;;;;;;26.80;30.70;100569.81;5067146;28;980;-47
2022/07/21 07:47:48;;;;;;;;;;;;;;;26.93;30.51;100571.00;5070762;28;1032;-46
2022/07/21 07:50:14;;;;;;;;;;;;;;;27.07;30.94;100578.31;5067686;28;1179;-45
2022/07/21 07:52:39;;;;;;;;;;;;;;;27.29;30.93;100578.41;5072625;28;1981;-44
2022/07/21 07:55:10;;;;;;;;;;;;;;;27.46;30.62;100564.69;5071173;28;1242;-47
2022/07/21 07:57:35;;;;;;;;;;;;;;;27.24;31.94;100578.13;5074577;28;1063;-45
2022/07/21 08:00:01;;;;;;;;;;;;;;;27.29;32.14;100581.09;5073410;28;1261;-50
2022/07/21 08:02:26;;;;;;;;;;;;;;;27.32;32.17;100590.69;5065779;28;1120;-50
2022/07/21 08:04:51;;;;;;;;;;;;;;;27.34;32.08;100589.44;5071978;28;1024;-46
2022/07/21 08:07:16;;;;;;;;;;;;;;;27.49;32.08;100578.63;5068481;28;1028;-49
2022/07/21 08:09:42;;;;;;;;;;;;;;;27.43;32.53;100578.53;5072620;28;1028;-53
2022/07/21 08:12:07;;;;;;;;;;;;;;;27.43;32.83;100575.84;5072736;28;1906;-48
2022/07/21 08:14:32;;;;;;;;;;;;;;;27.48;32.62;100573.41;5069474;28;1029;-45
2022/07/21 08:16:58;;;;;;;;;;;;;;;27.57;32.57;100580.41;5074536;28;1123;-44
2022/07/21 08:19:24;;;;;;;;;;;;;;;27.58;32.63;100586.63;5071149;28;1175;-44
2022/07/21 08:21:49;;;;;;;;;;;;;;;27.58;32.90;100589.31;5067127;28;974;-45
2022/07/21 08:24:14;;;;;;;;;;;;;;;27.59;32.75;100589.13;5070894;28;1139;-50
2022/07/21 08:26:40;;;;;;;;;;;;;;;27.53;33.51;100589.06;5072975;28;1001;-50
2022/07/21 08:29:05;;;;;;;;;;;;;;;27.34;34.29;100584.06;5072788;28;1210;-48
2022/07/21 08:31:30;;;;;;;;;;;;;;;27.48;33.86;100597.72;5065970;28;1894;-51
2022/07/21 08:33:56;;;;;;;;;;;;;;;27.48;33.09;100595.03;5069239;28;1329;-49
2022/07/21 08:36:21;;;;;;;;;;;;;;;27.37;34.27;100599.06;5067819;28;1219;-47
2022/07/21 08:38:46;;;;;;;;;;;;;;;27.28;34.10;100602.91;5066537;28;1255;-50
2022/07/21 08:41:12;;;;;;;;;;;;;;;27.37;34.08;100597.19;5066188;28;1200;-49
2022/07/21 08:43:37;;;;;;;;;;;;;;;27.45;33.80;100595.41;5056102;28;1176;-47
2022/07/21 08:46:03;;;;;;;;;;;;;;;27.47;33.57;100602.31;5075699;28;1004;-48
2022/07/21 08:48:29;;;;;;;;;;;;;;;27.42;34.06;100596.63;5066831;28;1072;-48
2022/07/21 08:50:54;;;;;;;;;;;;;;;27.34;34.50;100605.66;5069306;28;1967;-47
2022/07/21 08:53:20;;;;;;;;;;;;;;;27.36;34.55;100602.78;5062711;28;1124;-48
2022/07/21 08:55:45;;;;;;;;;;;;;;;27.44;34.16;100612.66;5045541;28;949;-48
2022/07/21 08:58:11;;;;;;;;;;;;;;;27.43;33.63;100609.09;5070790;28;1017;-46
2022/07/21 09:00:37;;;;;;;;;;;;;;;27.46;33.57;100606.00;5069070;28;1423;-48
2022/07/21 09:03:08;;;;;;;;;;;;;;;27.45;34.41;100608.91;5071417;28;1052;-46
2022/07/21 09:05:33;;;;;;;;;;;;;;;27.37;34.27;100617.97;5071649;28;1021;-48
2022/07/21 09:07:59;;;;;;;;;;;;;;;27.35;34.70;100606.50;5069270;28;1048;-45
2022/07/21 09:10:25;;;;;;;;;;;;;;;27.38;34.43;100606.13;5068850;28;1072;-48
2022/07/21 09:12:54;;;;;;;;;;;;;;;27.41;34.13;100603.03;5065213;28;1898;-47
2022/07/21 09:15:20;;;;;;;;;;;;;;;27.43;33.78;100610.97;5062935;28;1290;-44
2022/07/21 09:17:45;;;;;;;;;;;;;;;27.68;33.54;100600.69;5074984;28;1202;-48
2022/07/21 09:20:25;;;;;;;;;;;;;;;27.67;33.50;100600.84;5065373;28;861;-52
2022/07/21 09:23:03;;;;;;;;;;;;;;;27.66;33.49;100605.41;5061486;28;1119;-48
2022/07/21 09:25:35;;;;;;;;;;;;;;;27.63;34.00;100598.53;5070488;28;1099;-50
2022/07/21 09:28:10;;;;;;;;;;;;;;;27.89;34.03;100611.72;5056838;28;1017;-52
2022/07/21 09:30:54;;;;;;;;;;;;;;;27.91;34.10;100602.38;5069072;28;1148;-52
2022/07/21 09:33:20;;;;;;;;;;;;;;;27.98;34.34;100597.03;5059492;28;1048;-51
2022/07/21 09:36:04;;;;;;;;;;;;;;;27.99;34.14;100594.16;5067320;28;1063;-46
2022/07/21 09:38:30;;;;;;;;;;;;;;;28.14;34.16;100606.78;5064855;28;914;-47
2022/07/21 09:40:58;;;;;;;;;;;;;;;28.17;34.25;100609.09;5068272;28;1001;-51
2022/07/21 09:43:34;;;;;;;;;;;;;;;28.18;34.14;100607.22;5070117;28;1039;-52
2022/07/21 09:46:00;;;;;;;;;;;;;;;28.29;34.81;100611.28;5069793;28;953;-49
2022/07/21 09:48:28;;;;;;;;;;;;;;;28.52;34.65;100605.69;5075654;28;981;-53
2022/07/21 09:50:54;;;;;;;;;;;;;;;28.64;34.40;100605.97;5072630;28;1902;-45
2022/07/21 09:53:19;;;;;;;;;;;;;;;28.64;34.51;100602.44;5072804;28;1380;-49
2022/07/21 09:55:44;;;;;;;;;;;;;;;28.65;35.43;100599.53;5073640;28;961;-48
2022/07/21 09:58:10;;;;;;;;;;;;;;;28.68;35.23;100609.09;5075418;28;973;-50
2022/07/21 10:00:35;;;;;;;;;;;;;;;28.76;35.28;100598.13;5065256;28;1060;-48
2022/07/21 10:03:00;;;;;;;;;;;;;;;28.94;34.56;100596.81;5057620;28;1072;-45
2022/07/21 10:05:26;;;;;;;;;;;;;;;28.97;34.43;100604.56;5058480;28;1119;-44
2022/07/21 10:07:51;;;;;;;;;;;;;;;28.85;34.32;100610.50;5078433;28;1008;-49
2022/07/21 10:10:17;;;;;;;;;;;;;;;28.91;34.97;100610.75;5051731;28;1065;-45
2022/07/21 10:12:42;;;;;;;;;;;;;;;28.90;34.32;100606.34;5068646;28;1910;-45
2022/07/21 10:15:08;;;;;;;;;;;;;;;28.90;34.91;100606.34;5050874;28;879;-46
2022/07/21 10:17:33;;;;;;;;;;;;;;;28.87;34.93;100607.59;5069369;28;1119;-50
2022/07/21 10:20:07;;;;;;;;;;;;;;;28.85;34.71;100617.78;5074568;28;1059;-46
2022/07/21 10:22:44;;;;;;;;;;;;;;;28.83;34.21;100626.09;5071866;28;1187;-44
2022/07/21 10:25:10;;;;;;;;;;;;;;;28.78;34.23;100617.72;5073586;28;1100;-45
2022/07/21 10:27:35;;;;;;;;;;;;;;;28.66;34.07;100620.13;5071111;28;963;-45
2022/07/21 10:30:01;;;;;;;;;;;;;;;28.93;34.68;100633.88;5074535;28;1119;-49
2022/07/21 10:32:30;;;;;;;;;;;;;;;29.36;35.63;100628.50;5067215;28;1932;-52
2022/07/21 10:34:56;;;;;;;;;;;;;;;29.51;35.55;100631.88;5069773;28;981;-43
2022/07/21 10:37:40;;;;;;;;;;;;;;;29.81;36.21;100628.09;5067488;28;1036;-47
2022/07/21 10:40:05;;;;;;;;;;;;;;;29.96;37.48;100624.34;5067046;28;1009;-48
2022/07/21 10:42:31;;;;;;;;;;;;;;;29.91;37.67;100628.50;5072409;28;977;-55
2022/07/21 10:44:57;;;;;;;;;;;;;;;29.76;36.51;100630.56;5049193;28;1013;-47
2022/07/21 10:47:25;;;;;;;;;;;;;;;29.34;36.49;100631.41;5073447;28;1143;-47
2022/07/21 10:49:51;;;;;;;;;;;;;;;29.07;37.42;100628.56;5074043;28;1056;-46
2022/07/21 10:52:31;;;;;;;;;;;;;;;29.05;37.32;100619.78;5073057;28;1894;-48
2022/07/21 10:55:28;;;;;;;;;;;;;;;29.13;36.48;100621.53;5063208;28;1025;-49
2022/07/21 10:58:12;;;;;;;;;;;;;;;29.16;36.34;100630.06;5059805;28;1036;-52
2022/07/21 11:00:37;;;;;;;;;;;;;;;29.06;36.38;100627.72;5069984;28;957;-47
2022/07/21 11:03:03;;;;;;;;;;;;;;;29.00;36.91;100628.53;5068067;28;847;-46
2022/07/21 11:05:30;;;;;;;;;;;;;;;29.01;36.59;100629.38;5072893;28;1040;-52
2022/07/21 11:08:09;;;;;;;;;;;;;;;29.02;36.73;100628.31;5071178;28;1075;-44
2022/07/21 11:10:35;;;;;;;;;;;;;;;29.03;36.50;100635.44;5069557;28;1273;-46
2022/07/21 11:13:00;;;;;;;;;;;;;;;29.12;36.15;100633.38;5071568;28;1970;-45
2022/07/21 11:15:45;;;;;;;;;;;;;;;28.88;36.56;100640.91;5066837;28;1188;-51
2022/07/21 11:18:10;;;;;;;;;;;;;;;28.79;36.56;100643.78;5068495;28;1215;-47
2022/07/21 11:20:35;;;;;;;;;;;;;;;28.82;36.43;100640.69;5063177;28;1179;-49
2022/07/21 11:23:03;;;;;;;;;;;;;;;28.92;36.38;100645.75;5070434;28;1080;-47
2022/07/21 11:25:31;;;;;;;;;;;;;;;28.93;36.32;100644.69;5071314;28;1255;-50
2022/07/21 11:27:56;;;;;;;;;;;;;;;29.00;36.42;100636.66;5051569;28;1363;-48
2022/07/21 11:30:21;;;;;;;;;;;;;;;28.87;36.52;100641.94;5070378;28;1005;-44
2022/07/21 11:32:47;;;;;;;;;;;;;;;29.01;36.39;100632.88;5069196;28;1953;-48
2022/07/21 11:35:13;;;;;;;;;;;;;;;28.84;36.71;100643.19;5070913;28;1051;-48
2022/07/21 11:37:39;;;;;;;;;;;;;;;28.88;36.57;100660.69;5069985;28;1049;-48
2022/07/21 11:40:05;;;;;;;;;;;;;;;29.01;36.72;100656.44;5066459;28;1052;-51
2022/07/21 11:42:31;;;;;;;;;;;;;;;28.96;36.46;100655.13;5047690;28;1053;-53
2022/07/21 11:44:56;;;;;;;;;;;;;;;28.82;36.97;100658.78;5069740;28;881;-46
2022/07/21 11:47:25;;;;;;;;;;;;;;;28.75;36.81;100657.88;5070241;28;970;-54
2022/07/21 11:49:51;;;;;;;;;;;;;;;28.83;36.79;100663.16;5063987;28;1159;-49
2022/07/21 11:52:17;;;;;;;;;;;;;;;28.98;37.02;100665.78;5069493;28;1898;-48
2022/07/21 11:54:49;;;;;;;;;;;;;;;28.94;36.83;100665.34;5051833;28;970;-51
2022/07/21 11:57:15;;;;;;;;;;;;;;;28.89;37.00;100662.38;5075364;28;1196;-52
2022/07/21 11:59:40;;;;;;;;;;;;;;;29.04;36.78;100664.16;5068090;28;969;-48
2022/07/21 12:02:10;;;;;;;;;;;;;;;29.03;36.83;100659.81;5075918;28;1084;-47
2022/07/21 12:04:51;;;;;;;;;;;;;;;29.01;36.92;100656.44;5069990;28;1029;-52
2022/07/21 12:07:18;;;;;;;;;;;;;;;28.99;36.96;100656.66;5066135;28;1060;-43
2022/07/21 12:09:44;;;;;;;;;;;;;;;29.04;37.26;100667.72;5064070;28;1174;-48
2022/07/21 12:12:09;;;;;;;;;;;;;;;29.03;37.34;100651.69;5070630;28;1963;-49
2022/07/21 12:14:44;;;;;;;;;;;;;;;28.54;40.00;100665.84;5064409;28;1009;-54
2022/07/21 12:17:10;;;;;;;;;;;;;;;28.56;41.91;100660.25;5063266;28;1025;-52
2022/07/21 12:19:35;;;;;;;;;;;;;;;29.40;40.23;100662.28;5052003;28;950;-51
2022/07/21 12:22:01;;;;;;;;;;;;;;;29.11;41.63;100662.34;5070666;28;1116;-50
2022/07/21 12:24:45;;;;;;;;;;;;;;;29.95;39.19;100658.75;5046216;28;1013;-54
2022/07/21 12:27:11;;;;;;;;;;;;;;;29.63;38.71;100662.00;5063843;28;1143;-45
2022/07/21 12:29:36;;;;;;;;;;;;;;;29.65;37.90;100659.09;5073315;28;1096;-46
2022/07/21 12:32:01;;;;;;;;;;;;;;;29.62;37.74;100657.63;5066149;28;1898;-45
2022/07/21 12:34:26;;;;;;;;;;;;;;;29.60;37.57;100661.56;5064189;28;1158;-46
2022/07/21 12:36:52;;;;;;;;;;;;;;;29.39;37.73;100666.03;5069930;28;989;-46
2022/07/21 12:40:03;;;;;;;;;;;;;;;29.48;37.52;100675.66;5064000;28;1084;-50
2022/07/21 12:42:10;;;;;;;;;;;;;;;29.57;37.08;100666.34;5058506;28;1643;-48
2022/07/21 12:44:35;;;;;;;;;;;;;;;29.57;37.29;100669.03;5074225;28;1048;-56
2022/07/21 12:47:17;;;;;;;;;;;;;;;29.64;37.13;100668.25;5068623;28;1024;-49